createdAt,value
2017-05-06T00:00:39.781Z,13
2017-05-06T00:01:20.401Z,12.94
2017-05-06T00:02:01.057Z,12.95
2017-05-06T00:02:41.680Z,12.94
2017-05-06T00:03:22.349Z,12.97
2017-05-06T00:04:02.999Z,12.95
2017-05-06T00:04:43.617Z,12.9
2017-05-06T00:05:24.228Z,12.9
2017-05-06T00:06:04.849Z,12.85
2017-05-06T00:06:45.451Z,12.9
2017-05-06T00:07:26.061Z,12.9
2017-05-06T00:08:06.668Z,12.9
2017-05-06T00:08:47.291Z,12.93
2017-05-06T00:09:27.913Z,12.83
2017-05-06T00:10:08.519Z,12.85
2017-05-06T00:10:49.123Z,12.85
2017-05-06T00:11:29.768Z,12.85
2017-05-06T00:12:10.377Z,12.85
2017-05-06T00:12:50.985Z,12.82
2017-05-06T00:13:31.644Z,12.82
2017-05-06T00:14:12.281Z,12.83
2017-05-06T00:14:52.888Z,12.82
2017-05-06T00:15:33.503Z,12.8
2017-05-06T00:16:14.106Z,12.85
2017-05-06T00:16:54.709Z,12.7
2017-05-06T00:17:35.309Z,12.76
2017-05-06T00:18:15.959Z,12.75
2017-05-06T00:18:56.562Z,12.76
2017-05-06T00:19:37.172Z,12.72
2017-05-06T00:20:17.780Z,12.73
2017-05-06T00:20:58.413Z,12.76
2017-05-06T00:21:39.026Z,12.72
2017-05-06T00:22:19.634Z,12.78
2017-05-06T00:23:00.239Z,12.8
2017-05-06T00:23:40.834Z,12.7
2017-05-06T00:24:21.469Z,12.8
2017-05-06T00:25:02.065Z,12.83
2017-05-06T00:25:42.675Z,12.79
2017-05-06T00:26:23.289Z,12.86
2017-05-06T00:27:03.917Z,12.85
2017-05-06T00:27:44.537Z,12.83
2017-05-06T00:28:25.133Z,12.8
2017-05-06T00:29:05.749Z,12.82
2017-05-06T00:29:46.358Z,12.86
2017-05-06T00:30:26.983Z,12.9
2017-05-06T00:31:07.564Z,12.85
2017-05-06T00:31:48.168Z,12.83
2017-05-06T00:32:28.802Z,12.87
2017-05-06T00:33:09.456Z,12.85
2017-05-06T00:33:50.070Z,12.83
2017-05-06T00:34:30.706Z,12.82
2017-05-06T00:35:11.396Z,12.86
2017-05-06T00:35:52.017Z,12.82
2017-05-06T00:36:32.634Z,12.85
2017-05-06T00:37:13.242Z,12.79
2017-05-06T00:37:53.874Z,12.83
2017-05-06T00:38:34.481Z,12.85
2017-05-06T00:39:15.112Z,12.79
2017-05-06T00:39:55.750Z,12.82
2017-05-06T00:40:36.358Z,12.87
2017-05-06T00:41:16.957Z,12.79
2017-05-06T00:41:57.566Z,12.85
2017-05-06T00:42:38.178Z,12.86
2017-05-06T00:43:18.796Z,12.79
2017-05-06T00:43:59.421Z,12.86
2017-05-06T00:44:40.043Z,12.79
2017-05-06T00:45:20.657Z,12.85
2017-05-06T00:46:01.277Z,12.9
2017-05-06T00:46:41.894Z,12.85
2017-05-06T00:47:22.567Z,12.83
2017-05-06T00:48:03.195Z,12.8
2017-05-06T00:48:43.840Z,12.8
2017-05-06T00:49:24.518Z,12.8
2017-05-06T00:50:05.156Z,12.86
2017-05-06T00:50:48.465Z,12.85
2017-05-06T00:51:29.110Z,12.83
2017-05-06T00:52:09.739Z,12.83
2017-05-06T00:52:50.384Z,12.82
2017-05-06T00:53:31.012Z,12.82
2017-05-06T00:54:11.629Z,12.87
2017-05-06T00:54:52.243Z,12.86
2017-05-06T00:55:32.890Z,12.79
2017-05-06T00:56:13.535Z,12.83
2017-05-06T00:56:54.160Z,12.86
2017-05-06T00:57:34.808Z,12.82
2017-05-06T00:58:15.431Z,12.82
2017-05-06T00:58:56.043Z,12.85
2017-05-06T00:59:36.656Z,12.82
2017-05-06T01:00:17.302Z,12.82
2017-05-06T01:00:57.913Z,12.8
2017-05-06T01:01:38.537Z,12.73
2017-05-06T01:02:19.159Z,12.82
2017-05-06T01:02:59.795Z,12.82
2017-05-06T01:03:40.423Z,12.79
2017-05-06T01:04:21.068Z,12.79
2017-05-06T01:05:01.683Z,12.75
2017-05-06T01:05:42.335Z,12.78
2017-05-06T01:06:22.977Z,12.75
2017-05-06T01:07:03.591Z,12.7
2017-05-06T01:07:44.228Z,12.72
2017-05-06T01:08:24.851Z,12.7
2017-05-06T01:09:05.511Z,12.75
2017-05-06T01:09:46.139Z,12.75
2017-05-06T01:10:26.756Z,12.79
2017-05-06T01:11:07.399Z,12.76
2017-05-06T01:11:48.030Z,12.75
2017-05-06T01:12:28.653Z,12.75
2017-05-06T01:13:09.273Z,12.68
2017-05-06T01:13:49.888Z,12.76
2017-05-06T01:14:30.524Z,12.78
2017-05-06T01:15:11.164Z,12.76
2017-05-06T01:15:51.785Z,12.65
2017-05-06T01:16:32.405Z,12.67
2017-05-06T01:17:13.030Z,12.72
2017-05-06T01:17:53.628Z,12.72
2017-05-06T01:18:34.249Z,12.72
2017-05-06T01:19:14.873Z,12.72
2017-05-06T01:19:55.486Z,12.68
2017-05-06T01:20:36.133Z,12.65
2017-05-06T01:21:16.741Z,12.65
2017-05-06T01:21:57.347Z,12.62
2017-05-06T01:22:37.954Z,12.62
2017-05-06T01:23:18.598Z,12.61
2017-05-06T01:23:59.226Z,12.61
2017-05-06T01:24:39.851Z,12.72
2017-05-06T01:25:20.477Z,12.58
2017-05-06T01:26:01.104Z,12.55
2017-05-06T01:26:41.727Z,12.72
2017-05-06T01:27:22.384Z,12.64
2017-05-06T01:28:02.998Z,12.58
2017-05-06T01:28:43.620Z,12.67
2017-05-06T01:29:24.229Z,12.62
2017-05-06T01:30:04.852Z,12.61
2017-05-06T01:30:45.462Z,12.61
2017-05-06T01:31:26.103Z,12.64
2017-05-06T01:32:06.735Z,12.67
2017-05-06T01:32:47.374Z,12.57
2017-05-06T01:33:27.975Z,12.64
2017-05-06T01:34:08.607Z,12.64
2017-05-06T01:34:49.224Z,12.6
2017-05-06T01:35:29.848Z,12.53
2017-05-06T01:36:10.461Z,12.58
2017-05-06T01:36:51.083Z,12.5
2017-05-06T01:37:31.707Z,12.64
2017-05-06T01:38:12.319Z,12.54
2017-05-06T01:38:52.931Z,12.53
2017-05-06T01:39:33.540Z,12.57
2017-05-06T01:40:14.150Z,12.55
2017-05-06T01:40:54.804Z,12.57
2017-05-06T01:41:35.450Z,12.55
2017-05-06T01:42:16.106Z,12.55
2017-05-06T01:42:56.707Z,12.55
2017-05-06T01:43:37.318Z,12.61
2017-05-06T01:44:17.933Z,12.54
2017-05-06T01:44:58.558Z,12.5
2017-05-06T01:45:39.174Z,12.54
2017-05-06T01:46:19.782Z,12.57
2017-05-06T01:47:00.418Z,12.53
2017-05-06T01:47:41.024Z,12.55
2017-05-06T01:48:21.654Z,12.5
2017-05-06T01:49:02.270Z,12.46
2017-05-06T01:49:42.893Z,12.49
2017-05-06T01:50:23.524Z,12.47
2017-05-06T01:51:04.166Z,12.53
2017-05-06T01:51:44.767Z,12.42
2017-05-06T01:52:25.386Z,12.47
2017-05-06T01:53:05.995Z,12.45
2017-05-06T01:53:46.594Z,12.45
2017-05-06T01:54:27.257Z,12.47
2017-05-06T01:55:07.866Z,12.39
2017-05-06T01:55:48.522Z,12.42
2017-05-06T01:56:29.149Z,12.46
2017-05-06T01:57:09.755Z,12.42
2017-05-06T01:57:50.369Z,12.46
2017-05-06T01:58:30.972Z,12.43
2017-05-06T01:59:11.673Z,12.39
2017-05-06T01:59:52.321Z,12.4
2017-05-06T02:00:32.973Z,12.39
2017-05-06T02:01:13.582Z,12.46
2017-05-06T02:01:54.186Z,12.37
2017-05-06T02:02:34.785Z,12.45
2017-05-06T02:03:15.400Z,12.4
2017-05-06T02:03:56.034Z,12.4
2017-05-06T02:04:36.649Z,12.37
2017-05-06T02:05:17.248Z,12.37
2017-05-06T02:05:57.844Z,12.29
2017-05-06T02:06:38.446Z,12.39
2017-05-06T02:07:19.047Z,12.36
2017-05-06T02:07:59.653Z,12.39
2017-05-06T02:08:40.256Z,12.36
2017-05-06T02:09:20.861Z,12.39
2017-05-06T02:10:01.479Z,12.37
2017-05-06T02:10:42.109Z,12.31
2017-05-06T02:11:22.718Z,12.37
2017-05-06T02:12:03.307Z,12.4
2017-05-06T02:12:43.911Z,12.37
2017-05-06T02:13:24.514Z,12.39
2017-05-06T02:14:05.121Z,12.36
2017-05-06T02:14:45.731Z,12.39
2017-05-06T02:15:26.334Z,12.36
2017-05-06T02:16:06.937Z,12.32
2017-05-06T02:16:47.543Z,12.36
2017-05-06T02:17:28.177Z,12.36
2017-05-06T02:18:08.788Z,12.29
2017-05-06T02:18:49.388Z,12.32
2017-05-06T02:19:30.008Z,12.36
2017-05-06T02:20:10.607Z,12.37
2017-05-06T02:20:51.240Z,12.36
2017-05-06T02:21:31.842Z,12.31
2017-05-06T02:22:12.450Z,12.31
2017-05-06T02:22:53.049Z,12.35
2017-05-06T02:23:33.664Z,12.28
2017-05-06T02:24:14.270Z,12.37
2017-05-06T02:24:54.869Z,12.31
2017-05-06T02:25:35.511Z,12.36
2017-05-06T02:26:16.125Z,12.29
2017-05-06T02:26:56.720Z,12.35
2017-05-06T02:27:37.365Z,12.29
2017-05-06T02:28:17.968Z,12.25
2017-05-06T02:28:58.574Z,12.29
2017-05-06T02:29:39.185Z,12.27
2017-05-06T02:30:19.791Z,12.35
2017-05-06T02:31:00.390Z,12.35
2017-05-06T02:31:40.989Z,12.31
2017-05-06T02:32:21.681Z,12.31
2017-05-06T02:33:02.291Z,12.32
2017-05-06T02:33:42.904Z,12.37
2017-05-06T02:34:23.506Z,12.32
2017-05-06T02:35:04.119Z,12.32
2017-05-06T02:35:44.749Z,12.35
2017-05-06T02:36:25.408Z,12.35
2017-05-06T02:37:06.052Z,12.32
2017-05-06T02:37:46.669Z,12.32
2017-05-06T02:38:27.326Z,12.28
2017-05-06T02:39:07.915Z,12.31
2017-05-06T02:39:48.529Z,12.25
2017-05-06T02:40:29.158Z,12.36
2017-05-06T02:41:09.745Z,12.36
2017-05-06T02:41:50.343Z,12.35
2017-05-06T02:42:30.948Z,12.39
2017-05-06T02:43:11.589Z,12.31
2017-05-06T02:43:52.181Z,12.42
2017-05-06T02:44:32.789Z,12.35
2017-05-06T02:45:13.397Z,12.36
2017-05-06T02:45:54.014Z,12.32
2017-05-06T02:46:34.636Z,12.37
2017-05-06T02:47:15.275Z,12.35
2017-05-06T02:47:55.881Z,12.31
2017-05-06T02:48:36.489Z,12.35
2017-05-06T02:49:17.125Z,12.35
2017-05-06T02:49:57.741Z,12.29
2017-05-06T02:50:38.364Z,12.35
2017-05-06T02:51:18.982Z,12.32
2017-05-06T02:51:59.635Z,12.24
2017-05-06T02:52:40.271Z,12.22
2017-05-06T02:53:20.903Z,12.24
2017-05-06T02:54:01.518Z,12.2
2017-05-06T02:54:42.126Z,12.27
2017-05-06T02:55:22.738Z,12.18
2017-05-06T02:56:03.397Z,12.27
2017-05-06T02:56:44.017Z,12.15
2017-05-06T02:57:24.801Z,12.13
2017-05-06T02:58:05.423Z,12.2
2017-05-06T02:58:46.067Z,12.27
2017-05-06T02:59:26.675Z,12.18
2017-05-06T03:00:07.278Z,12.25
2017-05-06T03:00:47.887Z,12.15
2017-05-06T03:01:28.497Z,12.21
2017-05-06T03:02:09.113Z,12.24
2017-05-06T03:02:49.733Z,12.24
2017-05-06T03:03:30.336Z,12.22
2017-05-06T03:04:10.940Z,12.22
2017-05-06T03:04:51.557Z,12.2
2017-05-06T03:05:32.206Z,12.22
2017-05-06T03:06:12.806Z,12.21
2017-05-06T03:06:53.432Z,12.22
2017-05-06T03:07:34.020Z,12.2
2017-05-06T03:08:14.633Z,12.31
2017-05-06T03:08:55.253Z,12.24
2017-05-06T03:09:35.869Z,12.22
2017-05-06T03:10:16.473Z,12.25
2017-05-06T03:10:57.098Z,12.27
2017-05-06T03:11:37.721Z,12.21
2017-05-06T03:12:18.347Z,12.25
2017-05-06T03:12:58.970Z,12.24
2017-05-06T03:13:39.617Z,12.21
2017-05-06T03:14:20.196Z,12.13
2017-05-06T03:15:00.822Z,12.25
2017-05-06T03:15:41.429Z,12.24
2017-05-06T03:16:22.053Z,12.22
2017-05-06T03:17:02.690Z,12.22
2017-05-06T03:17:43.288Z,12.22
2017-05-06T03:18:23.905Z,12.22
2017-05-06T03:19:04.525Z,12.24
2017-05-06T03:19:45.179Z,12.21
2017-05-06T03:20:25.768Z,12.2
2017-05-06T03:21:06.396Z,12.21
2017-05-06T03:21:47.010Z,12.21
2017-05-06T03:22:27.665Z,12.22
2017-05-06T03:23:08.316Z,12.24
2017-05-06T03:23:48.915Z,12.18
2017-05-06T03:24:29.521Z,12.2
2017-05-06T03:25:10.132Z,12.21
2017-05-06T03:25:50.790Z,12.12
2017-05-06T03:26:31.419Z,12.24
2017-05-06T03:27:12.037Z,12.17
2017-05-06T03:27:52.654Z,12.17
2017-05-06T03:28:33.260Z,12.15
2017-05-06T03:29:13.884Z,12.1
2017-05-06T03:29:54.519Z,12.15
2017-05-06T03:30:35.153Z,12.1
2017-05-06T03:31:15.763Z,12.2
2017-05-06T03:31:56.356Z,12.13
2017-05-06T03:32:36.977Z,12.18
2017-05-06T03:33:17.743Z,12.13
2017-05-06T03:33:58.366Z,12.07
2017-05-06T03:34:38.979Z,12.12
2017-05-06T03:35:19.602Z,12.06
2017-05-06T03:36:00.218Z,11.99
2017-05-06T03:36:40.849Z,11.99
2017-05-06T03:37:21.475Z,11.99
2017-05-06T03:38:02.084Z,12.02
2017-05-06T03:38:42.696Z,11.94
2017-05-06T03:39:23.320Z,11.99
2017-05-06T03:40:03.914Z,11.97
2017-05-06T03:40:44.557Z,11.88
2017-05-06T03:41:25.183Z,12
2017-05-06T03:42:05.806Z,11.91
2017-05-06T03:42:46.430Z,11.97
2017-05-06T03:43:27.056Z,11.88
2017-05-06T03:44:07.733Z,11.94
2017-05-06T03:44:48.374Z,11.88
2017-05-06T03:45:29.000Z,11.86
2017-05-06T03:46:09.644Z,11.9
2017-05-06T03:46:50.247Z,11.94
2017-05-06T03:47:30.884Z,11.88
2017-05-06T03:48:11.496Z,11.97
2017-05-06T03:48:52.095Z,11.88
2017-05-06T03:49:32.745Z,11.91
2017-05-06T03:50:13.366Z,11.83
2017-05-06T03:50:53.996Z,11.81
2017-05-06T03:51:34.595Z,11.86
2017-05-06T03:52:15.219Z,11.83
2017-05-06T03:52:55.890Z,11.87
2017-05-06T03:53:36.506Z,11.99
2017-05-06T03:54:17.195Z,11.91
2017-05-06T03:54:57.915Z,11.94
2017-05-06T03:55:38.426Z,11.91
2017-05-06T03:56:19.025Z,12
2017-05-06T03:56:59.631Z,11.97
2017-05-06T03:57:40.252Z,11.91
2017-05-06T03:58:20.877Z,11.9
2017-05-06T03:59:01.469Z,11.94
2017-05-06T03:59:42.079Z,11.91
2017-05-06T04:00:22.697Z,11.97
2017-05-06T04:01:03.303Z,11.91
2017-05-06T04:01:43.956Z,11.9
2017-05-06T04:02:24.565Z,11.9
2017-05-06T04:03:05.181Z,12.06
2017-05-06T04:03:45.817Z,12.07
2017-05-06T04:04:26.518Z,12.02
2017-05-06T04:05:07.601Z,12.07
2017-05-06T04:05:48.207Z,12
2017-05-06T04:06:28.844Z,11.97
2017-05-06T04:07:09.481Z,12.03
2017-05-06T04:07:50.142Z,12.13
2017-05-06T04:08:30.753Z,12.1
2017-05-06T04:09:11.390Z,12.12
2017-05-06T04:09:52.028Z,12.1
2017-05-06T04:10:32.647Z,12.15
2017-05-06T04:11:13.248Z,12.12
2017-05-06T04:11:53.845Z,12.15
2017-05-06T04:12:34.449Z,12.21
2017-05-06T04:13:15.074Z,12.2
2017-05-06T04:13:55.669Z,12.21
2017-05-06T04:14:36.244Z,12.21
2017-05-06T04:15:16.838Z,12.24
2017-05-06T04:15:57.426Z,12.2
2017-05-06T04:16:38.002Z,12.21
2017-05-06T04:17:18.589Z,12.21
2017-05-06T04:17:59.248Z,12.24
2017-05-06T04:18:39.857Z,12.21
2017-05-06T04:19:20.442Z,12.17
2017-05-06T04:20:01.017Z,12.21
2017-05-06T04:20:41.587Z,12.21
2017-05-06T04:21:22.173Z,12.2
2017-05-06T04:22:02.766Z,12.18
2017-05-06T04:22:43.361Z,12.24
2017-05-06T04:23:23.947Z,12.13
2017-05-06T04:24:04.518Z,12.18
2017-05-06T04:24:45.113Z,12.22
2017-05-06T04:25:25.695Z,12.22
2017-05-06T04:26:06.276Z,12.13
2017-05-06T04:26:46.862Z,12.24
2017-05-06T04:27:27.450Z,12.18
2017-05-06T04:28:08.005Z,12.21
2017-05-06T04:28:48.592Z,12.15
2017-05-06T04:29:29.179Z,12.22
2017-05-06T04:30:09.754Z,12.22
2017-05-06T04:30:50.329Z,12.28
2017-05-06T04:31:30.914Z,12.28
2017-05-06T04:32:11.477Z,12.2
2017-05-06T04:32:52.056Z,12.24
2017-05-06T04:33:32.663Z,12.32
2017-05-06T04:34:13.241Z,12.31
2017-05-06T04:34:53.831Z,12.31
2017-05-06T04:35:34.417Z,12.24
2017-05-06T04:36:14.991Z,12.29
2017-05-06T04:36:55.584Z,12.21
2017-05-06T04:37:36.156Z,12.24
2017-05-06T04:38:16.752Z,12.21
2017-05-06T04:38:57.339Z,12.22
2017-05-06T04:39:37.912Z,12.2
2017-05-06T04:40:18.485Z,12.24
2017-05-06T04:40:59.095Z,12.21
2017-05-06T04:41:39.684Z,12.2
2017-05-06T04:42:20.255Z,12.24
2017-05-06T04:43:00.833Z,12.28
2017-05-06T04:43:41.442Z,12.21
2017-05-06T04:44:22.052Z,12.15
2017-05-06T04:45:02.644Z,12.18
2017-05-06T04:45:43.250Z,12.22
2017-05-06T04:46:23.839Z,12.22
2017-05-06T04:47:04.422Z,12.15
2017-05-06T04:47:45.039Z,12.18
2017-05-06T04:48:25.680Z,12.22
2017-05-06T04:49:06.263Z,12.24
2017-05-06T04:49:46.862Z,12.24
2017-05-06T04:50:27.444Z,12.28
2017-05-06T04:51:08.037Z,12.25
2017-05-06T04:51:48.632Z,12.32
2017-05-06T04:52:29.221Z,12.27
2017-05-06T04:53:09.820Z,12.21
2017-05-06T04:53:50.413Z,12.25
2017-05-06T04:54:31.030Z,12.35
2017-05-06T04:55:11.601Z,12.31
2017-05-06T04:55:52.174Z,12.31
2017-05-06T04:56:32.758Z,12.27
2017-05-06T04:57:13.345Z,12.31
2017-05-06T04:57:53.933Z,12.35
2017-05-06T04:58:34.514Z,12.36
2017-05-06T04:59:15.098Z,12.31
2017-05-06T04:59:55.738Z,12.31
2017-05-06T05:00:36.315Z,12.32
2017-05-06T05:01:16.902Z,12.36
2017-05-06T05:01:57.477Z,12.32
2017-05-06T05:02:38.054Z,12.29
2017-05-06T05:03:18.635Z,12.27
2017-05-06T05:03:59.257Z,12.24
2017-05-06T05:04:39.837Z,12.24
2017-05-06T05:05:20.419Z,12.25
2017-05-06T05:06:00.985Z,12.27
2017-05-06T05:06:41.600Z,12.18
2017-05-06T05:07:22.171Z,12.21
2017-05-06T05:08:02.752Z,12.21
2017-05-06T05:08:43.321Z,12.21
2017-05-06T05:09:23.898Z,12.22
2017-05-06T05:10:04.482Z,12.22
2017-05-06T05:10:45.048Z,12.24
2017-05-06T05:11:25.625Z,12.18
2017-05-06T05:12:06.221Z,12.22
2017-05-06T05:12:46.878Z,12.18
2017-05-06T05:13:29.896Z,12.2
2017-05-06T05:14:12.462Z,12.24
2017-05-06T05:14:57.205Z,12.27
2017-05-06T05:15:41.983Z,12.25
2017-05-06T05:16:24.343Z,12.35
2017-05-06T05:17:05.590Z,12.28
2017-05-06T05:18:50.475Z,12.32
2017-05-06T05:19:32.185Z,12.31
2017-05-06T05:20:13.590Z,12.37
2017-05-06T05:20:55.093Z,12.29
2017-05-06T05:21:38.301Z,12.29
2017-05-06T05:22:18.949Z,12.32
2017-05-06T05:22:59.640Z,12.35
2017-05-06T05:23:40.608Z,12.35
2017-05-06T05:25:18.484Z,12.31
2017-05-06T05:25:59.056Z,12.4
2017-05-06T05:26:39.675Z,12.36
2017-05-06T05:27:21.653Z,12.4
2017-05-06T05:28:04.717Z,12.37
2017-05-06T05:28:49.867Z,12.39
2017-05-06T05:29:30.500Z,12.39
2017-05-06T05:30:12.700Z,12.37
2017-05-06T05:30:53.344Z,12.42
2017-05-06T05:31:33.947Z,12.35
2017-05-06T05:32:14.935Z,12.32
2017-05-06T05:32:56.233Z,12.39
2017-05-06T05:33:37.546Z,12.49
2017-05-06T05:34:18.131Z,12.39
2017-05-06T05:34:58.723Z,12.45
2017-05-06T05:35:39.334Z,12.46
2017-05-06T05:36:19.921Z,12.45
2017-05-06T05:37:00.499Z,12.46
2017-05-06T05:37:41.086Z,12.43
2017-05-06T05:38:21.665Z,12.42
2017-05-06T05:39:02.309Z,12.37
2017-05-06T05:39:42.883Z,12.43
2017-05-06T05:40:23.495Z,12.4
2017-05-06T05:41:04.102Z,12.4
2017-05-06T05:41:44.703Z,12.37
2017-05-06T05:42:25.307Z,12.36
2017-05-06T05:43:05.904Z,12.39
2017-05-06T05:43:46.497Z,12.39
2017-05-06T05:44:27.097Z,12.39
2017-05-06T05:45:07.678Z,12.37
2017-05-06T05:45:48.255Z,12.35
2017-05-06T05:46:28.878Z,12.37
2017-05-06T05:47:09.489Z,12.42
2017-05-06T05:47:50.077Z,12.37
2017-05-06T05:48:30.664Z,12.39
2017-05-06T05:49:11.245Z,12.39
2017-05-06T05:49:51.855Z,12.4
2017-05-06T05:50:32.455Z,12.42
2017-05-06T05:51:13.061Z,12.36
2017-05-06T05:51:53.651Z,12.36
2017-05-06T05:52:34.255Z,12.39
2017-05-06T05:53:15.814Z,12.35
2017-05-06T05:53:56.382Z,12.39
2017-05-06T05:54:36.974Z,12.32
2017-05-06T05:55:17.547Z,12.4
2017-05-06T05:55:58.167Z,12.31
2017-05-06T05:56:38.751Z,12.27
2017-05-06T05:57:19.340Z,12.35
2017-05-06T05:57:59.920Z,12.36
2017-05-06T05:58:40.501Z,12.29
2017-05-06T05:59:21.083Z,12.37
2017-05-06T06:00:01.714Z,12.36
2017-05-06T06:00:42.398Z,12.39
2017-05-06T06:01:22.966Z,12.39
2017-05-06T06:02:03.533Z,12.35
2017-05-06T06:02:44.127Z,12.35
2017-05-06T06:03:24.719Z,12.43
2017-05-06T06:04:05.308Z,12.35
2017-05-06T06:04:45.881Z,12.37
2017-05-06T06:05:26.481Z,12.49
2017-05-06T06:06:07.034Z,12.4
2017-05-06T06:06:47.614Z,12.4
2017-05-06T06:07:28.197Z,12.46
2017-05-06T06:08:08.779Z,12.47
2017-05-06T06:08:49.365Z,12.47
2017-05-06T06:09:29.945Z,12.45
2017-05-06T06:10:10.522Z,12.47
2017-05-06T06:10:51.090Z,12.47
2017-05-06T06:11:31.666Z,12.53
2017-05-06T06:12:12.245Z,12.55
2017-05-06T06:12:53.454Z,12.58
2017-05-06T06:13:37.365Z,12.54
2017-05-06T06:14:21.220Z,12.54
2017-05-06T06:15:05.282Z,12.55
2017-05-06T06:15:47.051Z,12.54
2017-05-06T06:16:27.672Z,12.57
2017-05-06T06:17:10.973Z,12.57
2017-05-06T06:17:54.773Z,12.61
2017-05-06T06:18:35.367Z,12.6
2017-05-06T06:19:15.949Z,12.61
2017-05-06T06:19:56.577Z,12.57
2017-05-06T06:20:37.167Z,12.62
2017-05-06T06:21:17.774Z,12.58
2017-05-06T06:21:58.374Z,12.54
2017-05-06T06:22:40.491Z,12.57
2017-05-06T06:23:23.340Z,12.61
2017-05-06T06:24:08.144Z,12.6
2017-05-06T06:24:48.722Z,12.65
2017-05-06T06:25:29.330Z,12.6
2017-05-06T06:26:09.907Z,12.62
2017-05-06T06:26:50.474Z,12.68
2017-05-06T06:27:31.067Z,12.72
2017-05-06T06:28:11.651Z,12.72
2017-05-06T06:28:52.239Z,12.8
2017-05-06T06:29:32.796Z,12.98
2017-05-06T06:30:13.409Z,13.05
2017-05-06T06:30:54.029Z,13.31
2017-05-06T06:31:34.618Z,13.38
2017-05-06T06:32:15.230Z,13.56
2017-05-06T06:32:55.821Z,13.7
2017-05-06T06:33:36.400Z,13.81
2017-05-06T06:34:16.998Z,13.9
2017-05-06T06:34:57.599Z,14
2017-05-06T06:35:38.195Z,14.14
2017-05-06T06:36:18.814Z,14.07
2017-05-06T06:36:59.403Z,14.22
2017-05-06T06:37:39.990Z,14.32
2017-05-06T06:38:20.601Z,14.41
2017-05-06T06:39:01.194Z,14.47
2017-05-06T06:39:41.768Z,14.59
2017-05-06T06:40:22.388Z,14.54
2017-05-06T06:41:02.970Z,14.59
2017-05-06T06:41:43.540Z,14.66
2017-05-06T06:42:24.154Z,14.65
2017-05-06T06:43:04.734Z,14.84
2017-05-06T06:43:45.299Z,14.84
2017-05-06T06:44:25.914Z,14.86
2017-05-06T06:45:06.493Z,14.82
2017-05-06T06:45:47.977Z,14.86
2017-05-06T06:46:28.547Z,14.99
2017-05-06T06:47:09.141Z,14.91
2017-05-06T06:47:49.773Z,14.97
2017-05-06T06:48:30.382Z,15.03
2017-05-06T06:49:10.961Z,15.11
2017-05-06T06:49:51.581Z,15.11
2017-05-06T06:50:32.182Z,15.11
2017-05-06T06:51:14.255Z,15.03
2017-05-06T06:51:55.286Z,14.97
2017-05-06T06:52:35.869Z,15.09
2017-05-06T06:53:17.569Z,15.09
2017-05-06T06:53:59.196Z,15.15
2017-05-06T06:54:41.339Z,15.09
2017-05-06T06:55:27.372Z,15.07
2017-05-06T06:56:08.414Z,15.22
2017-05-06T06:56:50.210Z,15.21
2017-05-06T06:57:34.018Z,15.25
2017-05-06T06:58:16.007Z,15.31
2017-05-06T06:58:56.598Z,15.29
2017-05-06T06:59:37.527Z,15.35
2017-05-06T07:00:18.443Z,15.33
2017-05-06T07:00:59.016Z,15.44
2017-05-06T07:01:39.589Z,15.47
2017-05-06T07:02:21.292Z,15.46
2017-05-06T07:03:02.160Z,15.51
2017-05-06T07:03:44.172Z,15.47
2017-05-06T07:04:24.780Z,15.55
2017-05-06T07:05:05.352Z,15.57
2017-05-06T07:05:45.940Z,15.59
2017-05-06T07:06:33.238Z,15.51
2017-05-06T07:07:16.349Z,15.57
2017-05-06T07:07:56.942Z,15.54
2017-05-06T07:08:37.529Z,15.52
2017-05-06T07:09:18.105Z,15.58
2017-05-06T07:10:00.061Z,15.54
2017-05-06T07:10:42.458Z,15.39
2017-05-06T07:11:23.058Z,15.31
2017-05-06T07:12:04.144Z,15.21
2017-05-06T07:12:51.143Z,15.09
2017-05-06T07:13:31.733Z,15.02
2017-05-06T07:14:12.362Z,14.78
2017-05-06T07:14:54.849Z,14.66
2017-05-06T07:15:37.873Z,14.55
2017-05-06T07:16:18.461Z,14.62
2017-05-06T07:17:00.125Z,14.48
2017-05-06T07:17:40.953Z,14.5
2017-05-06T07:18:21.535Z,14.53
2017-05-06T07:19:02.106Z,14.35
2017-05-06T07:19:43.138Z,14.37
2017-05-06T07:20:26.224Z,14.36
2017-05-06T07:21:08.032Z,14.35
2017-05-06T07:21:50.111Z,14.25
2017-05-06T07:22:32.206Z,14.17
2017-05-06T07:23:17.038Z,14.14
2017-05-06T07:24:00.169Z,14.08
2017-05-06T07:24:42.161Z,14.03
2017-05-06T07:25:24.827Z,14
2017-05-06T07:26:10.398Z,14.05
2017-05-06T07:26:53.224Z,13.9
2017-05-06T07:27:33.859Z,13.92
2017-05-06T07:28:14.930Z,14.05
2017-05-06T07:28:56.716Z,13.92
2017-05-06T07:30:34.106Z,13.86
2017-05-06T07:31:17.928Z,13.9
2017-05-06T07:31:58.527Z,13.89
2017-05-06T07:32:39.116Z,13.89
2017-05-06T07:33:20.286Z,13.9
2017-05-06T07:34:02.631Z,13.95
2017-05-06T07:34:46.807Z,13.89
2017-05-06T07:35:30.545Z,13.85
2017-05-06T07:36:12.552Z,13.86
2017-05-06T07:36:53.416Z,13.92
2017-05-06T07:37:34.860Z,13.81
2017-05-06T07:38:16.508Z,13.9
2017-05-06T07:38:58.663Z,13.77
2017-05-06T07:39:39.265Z,13.78
2017-05-06T07:40:21.334Z,13.81
2017-05-06T07:41:01.970Z,13.75
2017-05-06T07:41:43.858Z,13.79
2017-05-06T07:42:26.021Z,13.75
2017-05-06T07:43:06.587Z,13.83
2017-05-06T07:43:47.187Z,13.79
2017-05-06T07:44:27.782Z,13.78
2017-05-06T07:45:08.409Z,13.79
2017-05-06T07:45:48.994Z,13.85
2017-05-06T07:46:29.753Z,13.86
2017-05-06T07:47:10.882Z,13.83
2017-05-06T07:47:51.492Z,13.92
2017-05-06T07:48:32.085Z,13.83
2017-05-06T07:49:13.688Z,13.89
2017-05-06T07:49:54.281Z,13.86
2017-05-06T07:50:34.993Z,13.79
2017-05-06T07:51:15.543Z,13.75
2017-05-06T07:51:56.122Z,13.81
2017-05-06T07:52:36.692Z,13.78
2017-05-06T07:53:17.296Z,13.79
2017-05-06T07:53:57.909Z,13.77
2017-05-06T07:54:38.547Z,13.74
2017-05-06T07:55:19.166Z,13.79
2017-05-06T07:56:01.421Z,13.78
2017-05-06T07:56:41.998Z,13.93
2017-05-06T07:57:22.611Z,13.86
2017-05-06T07:58:03.526Z,13.92
2017-05-06T07:58:44.120Z,13.9
2017-05-06T07:59:25.126Z,13.92
2017-05-06T08:00:05.719Z,13.85
2017-05-06T08:00:46.408Z,13.89
2017-05-06T08:01:26.993Z,13.83
2017-05-06T08:02:07.578Z,13.9
2017-05-06T08:02:48.194Z,13.96
2017-05-06T08:03:28.781Z,13.93
2017-05-06T08:04:09.404Z,13.97
2017-05-06T08:04:51.586Z,14.04
2017-05-06T08:05:32.256Z,14.07
2017-05-06T08:06:12.831Z,14.12
2017-05-06T08:06:53.440Z,14.17
2017-05-06T08:07:34.032Z,14.18
2017-05-06T08:08:14.991Z,14.32
2017-05-06T08:08:55.666Z,14.36
2017-05-06T08:09:37.157Z,14.45
2017-05-06T08:10:20.854Z,14.55
2017-05-06T08:11:01.843Z,14.53
2017-05-06T08:11:42.452Z,14.53
2017-05-06T08:12:23.053Z,14.66
2017-05-06T08:13:03.668Z,14.59
2017-05-06T08:13:44.253Z,14.66
2017-05-06T08:14:24.855Z,14.68
2017-05-06T08:15:05.440Z,14.72
2017-05-06T08:15:46.029Z,14.72
2017-05-06T08:16:26.635Z,14.79
2017-05-06T08:17:07.371Z,14.86
2017-05-06T08:17:48.095Z,14.85
2017-05-06T08:18:28.773Z,14.84
2017-05-06T08:19:09.386Z,14.88
2017-05-06T08:19:49.994Z,14.96
2017-05-06T08:20:30.714Z,14.91
2017-05-06T08:21:11.329Z,15.02
2017-05-06T08:21:51.959Z,15.06
2017-05-06T08:22:32.542Z,15.14
2017-05-06T08:23:13.125Z,15.22
2017-05-06T08:23:53.781Z,15.18
2017-05-06T08:24:34.360Z,15.24
2017-05-06T08:25:14.956Z,15.31
2017-05-06T08:25:55.704Z,15.27
2017-05-06T08:26:36.336Z,15.36
2017-05-06T08:27:18.520Z,15.36
2017-05-06T08:28:03.769Z,15.36
2017-05-06T08:28:46.431Z,15.39
2017-05-06T08:29:31.995Z,15.31
2017-05-06T08:30:12.696Z,15.35
2017-05-06T08:30:53.325Z,15.46
2017-05-06T08:31:33.953Z,15.35
2017-05-06T08:32:14.730Z,15.4
2017-05-06T08:32:55.277Z,15.43
2017-05-06T08:33:35.874Z,15.35
2017-05-06T08:34:20.402Z,15.35
2017-05-06T08:35:26.597Z,15.37
2017-05-06T08:36:12.779Z,15.35
2017-05-06T08:36:55.467Z,15.35
2017-05-06T08:37:38.335Z,15.33
2017-05-06T08:38:22.331Z,15.31
2017-05-06T08:39:09.339Z,15.36
2017-05-06T08:39:49.975Z,15.35
2017-05-06T08:40:33.260Z,15.35
2017-05-06T08:41:13.860Z,15.46
2017-05-06T08:41:54.465Z,15.46
2017-05-06T08:42:35.095Z,15.44
2017-05-06T08:43:16.524Z,15.47
2017-05-06T08:43:57.136Z,15.46
2017-05-06T08:44:37.798Z,15.47
2017-05-06T08:45:18.407Z,15.44
2017-05-06T08:45:59.113Z,15.49
2017-05-06T08:46:39.820Z,15.55
2017-05-06T08:47:20.426Z,15.52
2017-05-06T08:48:01.033Z,15.54
2017-05-06T08:48:41.700Z,15.55
2017-05-06T08:49:22.275Z,15.55
2017-05-06T08:50:02.878Z,15.58
2017-05-06T08:51:43.443Z,15.76
2017-05-06T08:52:24.063Z,15.86
2017-05-06T08:53:04.644Z,15.94